Time;durP1;ratioP1;P1;durP2;ratioP2;P2;SDS_P1;SDS_P2;PMS_P1;PMS_P2;Temp;Humidity;BMP_temperature;BMP_pressure;BME280_temperature;BME280_humidity;BME280_pressure;Samples;Min_cycle;Max_cycle;Signal;HPM_P1;HPM_P2
2022/04/11 00:00:35;;;;;;;8.53;2.20;;;8.20;99.90;;;;;;4975159;28;20183;-63
2022/04/11 00:03:01;;;;;;;6.50;2.30;;;8.20;99.90;;;;;;4974921;28;20211;-63
2022/04/11 00:05:27;;;;;;;11.73;2.10;;;8.20;99.90;;;;;;4975000;28;20309;-63
2022/04/11 00:07:53;;;;;;;7.43;2.50;;;8.20;99.90;;;;;;4975099;28;20204;-64
2022/04/11 00:10:19;;;;;;;11.20;2.50;;;8.20;99.90;;;;;;4974750;28;20183;-63
2022/04/11 00:12:44;;;;;;;7.20;2.47;;;8.20;99.90;;;;;;4974670;28;20251;-63
2022/04/11 00:15:11;;;;;;;9.83;2.70;;;8.20;99.90;;;;;;4974002;28;20180;-63
2022/04/11 00:17:37;;;;;;;7.97;2.47;;;8.20;99.90;;;;;;4974621;28;20580;-63
2022/04/11 00:20:05;;;;;;;9.63;2.03;;;8.30;99.90;;;;;;4974610;28;20184;-63
2022/04/11 00:22:35;;;;;;;5.07;2.10;;;8.30;99.90;;;;;;4973184;28;20597;-63
2022/04/11 00:25:02;;;;;;;10.67;2.50;;;8.30;99.90;;;;;;4974511;28;20682;-64
2022/04/11 00:27:29;;;;;;;8.27;2.17;;;8.20;99.90;;;;;;4974474;28;20184;-63
2022/04/11 00:29:54;;;;;;;6.50;2.27;;;8.70;99.90;;;;;;4974695;28;20304;-63
2022/04/11 00:32:20;;;;;;;12.00;2.63;;;8.20;99.90;;;;;;4975205;28;20650;-64
2022/04/11 00:34:46;;;;;;;10.57;2.00;;;7.80;99.90;;;;;;4993800;28;20631;-64
2022/04/11 00:37:12;;;;;;;9.57;2.30;;;8.20;99.90;;;;;;4993665;28;20297;-64
2022/04/11 00:39:37;;;;;;;9.30;2.53;;;8.10;99.90;;;;;;4992490;28;20171;-64
2022/04/11 00:42:15;;;;;;;7.47;2.50;;;8.20;99.90;;;;;;4993865;28;20262;-64
2022/04/11 00:44:41;;;;;;;9.80;2.80;;;8.20;99.90;;;;;;4993619;28;20198;-64
2022/04/11 00:47:07;;;;;;;6.10;2.33;;;8.20;99.90;;;;;;4993738;28;20542;-64
2022/04/11 00:49:33;;;;;;;7.17;2.73;;;8.20;99.90;;;;;;4993526;28;20168;-64
2022/04/11 00:51:59;;;;;;;8.17;2.63;;;8.10;99.90;;;;;;4993315;28;20183;-64
2022/04/11 00:54:27;;;;;;;14.13;2.50;;;8.10;99.90;;;;;;4993329;28;20218;-64
2022/04/11 00:56:54;;;;;;;6.77;2.57;;;8.10;99.90;;;;;;4993304;28;20171;-65
2022/04/11 00:59:21;;;;;;;8.10;2.40;;;8.10;99.90;;;;;;4992785;28;20179;-65
2022/04/11 01:01:47;;;;;;;5.00;2.40;;;8.10;99.90;;;;;;4993308;28;20210;-65
2022/04/11 01:04:23;;;;;;;9.00;2.27;;;8.10;99.90;;;;;;4994121;28;20224;-64
2022/04/11 01:06:55;;;;;;;10.87;2.30;;;8.10;99.90;;;;;;4992757;28;20301;-60
2022/04/11 01:09:22;;;;;;;6.60;2.63;;;8.10;99.90;;;;;;4993051;28;20269;-63
2022/04/11 01:11:48;;;;;;;7.97;2.63;;;8.00;99.90;;;;;;4992623;28;20179;-62
2022/04/11 01:14:14;;;;;;;7.07;2.57;;;8.00;99.90;;;;;;4993239;28;20172;-63
2022/04/11 01:16:50;;;;;;;8.37;2.53;;;8.00;99.90;;;;;;4992613;28;20258;-64
2022/04/11 01:19:17;;;;;;;6.73;2.57;;;8.00;99.90;;;;;;4993058;28;20174;-63
2022/04/11 01:21:43;;;;;;;5.90;2.37;;;8.90;99.90;;;;;;4992636;28;20187;-64
2022/04/11 01:24:09;;;;;;;9.33;2.97;;;8.00;99.90;;;;;;4991469;28;20672;-63
2022/04/11 01:26:36;;;;;;;7.00;2.60;;;8.20;99.90;;;;;;4990433;28;20175;-63
2022/04/11 01:29:04;;;;;;;8.70;2.50;;;7.00;99.90;;;;;;4992797;28;20178;-62
2022/04/11 01:31:33;;;;;;;8.10;2.30;;;7.90;99.90;;;;;;4992662;28;20210;-64
2022/04/11 01:33:59;;;;;;;5.53;2.80;;;7.90;99.90;;;;;;4991548;28;20172;-64
2022/04/11 01:36:25;;;;;;;8.10;2.37;;;7.90;99.90;;;;;;4992496;28;20231;-64
2022/04/11 01:38:51;;;;;;;11.10;3.50;;;7.90;99.90;;;;;;4992511;28;20186;-64
2022/04/11 01:41:16;;;;;;;6.83;2.43;;;7.90;99.90;;;;;;4992623;28;20183;-64
2022/04/11 01:43:42;;;;;;;9.67;3.07;;;7.90;99.90;;;;;;4992573;28;20164;-64
2022/04/11 01:46:08;;;;;;;7.87;3.10;;;7.90;99.90;;;;;;4992226;28;20211;-65
2022/04/11 01:48:33;;;;;;;10.77;3.20;;;7.90;99.90;;;;;;4992446;28;20246;-65
2022/04/11 01:50:59;;;;;;;10.10;3.40;;;7.90;99.90;;;;;;4992606;28;20171;-64
2022/04/11 01:53:25;;;;;;;11.47;2.87;;;7.80;99.90;;;;;;4992363;28;20202;-67
2022/04/11 01:55:51;;;;;;;12.03;3.20;;;7.80;99.90;;;;;;4992449;28;20183;-64
2022/04/11 01:58:17;;;;;;;11.00;3.20;;;7.80;99.90;;;;;;4992269;28;20692;-64
2022/04/11 02:00:43;;;;;;;8.47;3.00;;;7.80;99.90;;;;;;4992322;28;20179;-65
2022/04/11 02:03:10;;;;;;;8.90;3.30;;;7.80;99.90;;;;;;4992046;28;20179;-65
2022/04/11 02:05:35;;;;;;;8.37;3.07;;;7.80;99.90;;;;;;4992237;28;20218;-65
2022/04/11 02:08:03;;;;;;;8.27;2.93;;;7.80;99.90;;;;;;4992372;28;20302;-65
2022/04/11 02:10:29;;;;;;;11.47;3.60;;;7.80;99.90;;;;;;4978522;28;20583;-65
2022/04/11 02:12:56;;;;;;;10.03;3.50;;;7.80;99.90;;;;;;4991967;28;20207;-65
2022/04/11 02:15:22;;;;;;;15.60;3.87;;;7.80;99.90;;;;;;4983885;28;20187;-65
2022/04/11 02:17:50;;;;;;;9.00;3.47;;;7.80;99.90;;;;;;4983186;28;20623;-64
2022/04/11 02:20:16;;;;;;;7.97;3.20;;;7.80;99.90;;;;;;4991864;28;20678;-63
2022/04/11 02:22:52;;;;;;;15.20;3.53;;;7.80;99.90;;;;;;4991871;28;20235;-63
2022/04/11 02:25:20;;;;;;;9.50;3.27;;;7.80;99.90;;;;;;4991640;28;20210;-64
2022/04/11 02:27:47;;;;;;;11.47;3.50;;;7.80;99.90;;;;;;4991447;28;20172;-63
2022/04/11 02:30:14;;;;;;;12.30;3.60;;;7.80;99.90;;;;;;4991307;28;20645;-63
2022/04/11 02:32:40;;;;;;;12.60;3.43;;;7.80;99.90;;;;;;4991346;28;20210;-63
2022/04/11 02:35:07;;;;;;;7.90;3.80;;;7.80;99.90;;;;;;4990898;28;20191;-63
2022/04/11 02:37:33;;;;;;;10.80;3.70;;;7.80;99.90;;;;;;4991229;28;20215;-63
2022/04/11 02:39:59;;;;;;;6.10;3.30;;;7.80;99.90;;;;;;4991587;28;20175;-63
2022/04/11 02:42:27;;;;;;;10.80;3.40;;;7.80;99.90;;;;;;4991511;28;20230;-63
2022/04/11 02:44:54;;;;;;;9.93;3.70;;;7.80;99.90;;;;;;4991445;28;20237;-63
2022/04/11 02:47:20;;;;;;;12.13;3.70;;;7.80;99.90;;;;;;4990316;28;20642;-63
2022/04/11 02:49:46;;;;;;;10.53;4.07;;;7.70;99.90;;;;;;4991697;28;20189;-64
2022/04/11 02:52:13;;;;;;;12.50;3.57;;;7.70;99.90;;;;;;4991552;28;20179;-64
2022/04/11 02:54:40;;;;;;;16.83;3.90;;;7.70;99.90;;;;;;4991327;28;20186;-64
2022/04/11 02:57:06;;;;;;;12.83;3.97;;;7.70;99.90;;;;;;4991384;28;20171;-66
2022/04/11 02:59:33;;;;;;;15.17;4.37;;;7.70;99.90;;;;;;4991425;28;20178;-64
2022/04/11 03:02:00;;;;;;;11.43;4.30;;;7.70;99.90;;;;;;4991018;28;20175;-64
2022/04/11 03:04:26;;;;;;;13.83;4.00;;;7.70;99.90;;;;;;4991222;28;20215;-64
2022/04/11 03:06:53;;;;;;;13.87;4.33;;;7.80;99.90;;;;;;4990913;28;20206;-63
2022/04/11 03:09:19;;;;;;;11.33;3.93;;;7.70;99.90;;;;;;4991283;28;20182;-64
2022/04/11 03:11:45;;;;;;;12.10;4.20;;;7.70;99.90;;;;;;4990731;28;20182;-64
2022/04/11 03:14:11;;;;;;;11.57;4.53;;;7.80;99.90;;;;;;4990704;28;20183;-64
2022/04/11 03:16:37;;;;;;;9.30;4.03;;;7.80;99.90;;;;;;4990992;28;20545;-63
2022/04/11 03:19:03;;;;;;;11.00;4.00;;;7.70;99.90;;;;;;4991173;28;20175;-63
2022/04/11 03:21:29;;;;;;;16.50;4.43;;;7.70;99.90;;;;;;4990917;28;20171;-63
2022/04/11 03:23:54;;;;;;;12.00;4.00;;;7.70;99.90;;;;;;4991246;28;20585;-67
2022/04/11 03:26:20;;;;;;;13.33;4.00;;;7.70;99.90;;;;;;4990813;28;20698;-61
2022/04/11 03:28:46;;;;;;;13.67;4.17;;;7.70;99.90;;;;;;4991002;28;20176;-63
2022/04/11 03:31:12;;;;;;;8.00;3.33;;;7.70;99.90;;;;;;4989667;28;20605;-63
2022/04/11 03:33:38;;;;;;;10.17;4.23;;;7.70;99.90;;;;;;4990610;28;20179;-62
2022/04/11 03:36:05;;;;;;;11.80;4.40;;;7.70;99.90;;;;;;4990531;28;20306;-62
2022/04/11 03:38:31;;;;;;;9.10;3.90;;;7.70;99.90;;;;;;4991023;28;20176;-62
2022/04/11 03:40:56;;;;;;;13.07;4.43;;;7.70;99.90;;;;;;4990852;28;20186;-62
2022/04/11 03:43:22;;;;;;;9.90;3.90;;;7.70;99.90;;;;;;4990882;28;20178;-62
2022/04/11 03:45:48;;;;;;;8.10;4.03;;;7.70;99.90;;;;;;4990547;28;20635;-62
2022/04/11 03:48:14;;;;;;;14.43;4.17;;;7.70;99.90;;;;;;4991267;28;20171;-61
2022/04/11 03:50:40;;;;;;;9.60;4.23;;;7.70;99.90;;;;;;4992575;28;20265;-62
2022/04/11 03:53:06;;;;;;;10.70;4.27;;;7.70;99.90;;;;;;4994696;28;20171;-63
2022/04/11 03:55:31;;;;;;;11.67;4.50;;;7.70;99.90;;;;;;4993209;28;20176;-62
2022/04/11 03:57:57;;;;;;;12.80;3.93;;;7.60;99.90;;;;;;4994215;28;20646;-63
2022/04/11 04:00:23;;;;;;;8.30;3.90;;;7.60;99.90;;;;;;4994350;28;20190;-63
2022/04/11 04:02:50;;;;;;;11.30;4.60;;;7.60;99.90;;;;;;4994243;28;20266;-63
2022/04/11 04:05:17;;;;;;;10.57;4.17;;;7.60;99.90;;;;;;4994204;28;20269;-64
2022/04/11 04:07:42;;;;;;;11.73;3.87;;;7.60;99.90;;;;;;4994169;28;20175;-63
2022/04/11 04:10:08;;;;;;;9.73;4.10;;;7.50;99.90;;;;;;4994397;28;20250;-64
2022/04/11 04:12:34;;;;;;;17.57;4.80;;;7.60;99.90;;;;;;4994536;28;20225;-63
2022/04/11 04:15:01;;;;;;;13.13;4.27;;;7.60;99.90;;;;;;4994458;28;20171;-64
2022/04/11 04:17:27;;;;;;;11.60;3.77;;;7.60;99.90;;;;;;4994389;28;20666;-63
2022/04/11 04:19:53;;;;;;;14.03;4.40;;;7.60;99.90;;;;;;4994494;28;20179;-63
2022/04/11 04:22:19;;;;;;;13.07;4.70;;;7.60;99.90;;;;;;4994415;28;20183;-63
2022/04/11 04:24:45;;;;;;;13.97;4.33;;;7.60;99.90;;;;;;4994251;28;20565;-63
2022/04/11 04:27:11;;;;;;;12.97;4.50;;;7.60;99.90;;;;;;4994376;28;20643;-62
2022/04/11 04:29:36;;;;;;;10.90;4.73;;;7.60;99.90;;;;;;4994156;28;20643;-63
2022/04/11 04:32:03;;;;;;;12.17;4.17;;;7.60;99.90;;;;;;4994254;28;20177;-64
2022/04/11 04:34:31;;;;;;;15.50;5.00;;;7.70;99.90;;;;;;4994128;28;20669;-64
2022/04/11 04:36:58;;;;;;;8.97;4.03;;;7.70;99.90;;;;;;4993917;28;20241;-64
2022/04/11 04:39:24;;;;;;;12.37;4.60;;;7.70;99.90;;;;;;4994022;28;20176;-64
2022/04/11 04:41:50;;;;;;;12.13;4.80;;;7.70;99.90;;;;;;4993835;28;20174;-63
2022/04/11 04:44:16;;;;;;;13.50;4.47;;;7.70;99.90;;;;;;4993832;28;20175;-63
2022/04/11 04:46:42;;;;;;;12.90;4.73;;;7.70;99.90;;;;;;4993877;28;20185;-64
2022/04/11 04:49:08;;;;;;;13.93;4.70;;;7.70;99.90;;;;;;4993784;28;20179;-64
2022/04/11 04:51:33;;;;;;;12.13;4.40;;;7.70;99.90;;;;;;4993758;28;20238;-64
2022/04/11 04:53:59;;;;;;;16.17;4.93;;;7.80;99.90;;;;;;4992641;28;20211;-64
2022/04/11 04:56:26;;;;;;;10.07;4.13;;;7.80;99.90;;;;;;4989656;28;20175;-64
2022/04/11 04:58:51;;;;;;;16.73;4.73;;;7.80;99.90;;;;;;4993865;28;20265;-64
2022/04/11 05:01:18;;;;;;;11.57;4.67;;;7.70;99.90;;;;;;4993370;28;20250;-64
2022/04/11 05:03:43;;;;;;;10.40;4.53;;;7.80;99.90;;;;;;4993501;28;20183;-64
2022/04/11 05:06:09;;;;;;;9.33;3.50;;;7.80;99.90;;;;;;4993391;28;20306;-63
2022/04/11 05:08:35;;;;;;;8.97;3.97;;;;;;;;;;4993474;28;20179;-63
2022/04/11 05:11:01;;;;;;;11.40;4.03;;;8.40;99.90;;;;;;4992826;28;20234;-63
2022/04/11 05:13:27;;;;;;;15.40;3.93;;;7.80;99.90;;;;;;4990496;28;20179;-63
2022/04/11 05:15:53;;;;;;;9.83;3.90;;;7.80;99.90;;;;;;4993177;28;20273;-62
2022/04/11 05:18:19;;;;;;;8.50;4.47;;;7.80;99.90;;;;;;4993133;28;20229;-62
2022/04/11 05:20:45;;;;;;;9.43;3.90;;;7.80;99.90;;;;;;4993092;28;20183;-63
2022/04/11 05:23:10;;;;;;;11.13;4.10;;;7.80;99.90;;;;;;4993094;28;20175;-63
2022/04/11 05:25:36;;;;;;;12.10;4.37;;;7.90;99.90;;;;;;4992902;28;20262;-63
2022/04/11 05:28:03;;;;;;;10.47;3.70;;;7.90;99.90;;;;;;4979703;28;20211;-61
2022/04/11 05:30:33;;;;;;;10.57;4.10;;;7.90;99.90;;;;;;4992981;28;20261;-61
2022/04/11 05:33:00;;;;;;;15.03;4.27;;;7.90;99.90;;;;;;4992841;28;20175;-63
2022/04/11 05:35:26;;;;;;;10.13;4.20;;;8.00;99.90;;;;;;4992698;28;20218;-62
2022/04/11 05:37:52;;;;;;;10.53;4.03;;;7.90;99.90;;;;;;4992838;28;20182;-62
2022/04/11 05:40:18;;;;;;;9.43;4.33;;;7.90;99.90;;;;;;4992817;28;20167;-62
2022/04/11 05:42:44;;;;;;;9.00;3.67;;;8.00;99.90;;;;;;4992733;28;20194;-62
2022/04/11 05:45:10;;;;;;;9.30;4.00;;;8.00;99.90;;;;;;4985081;28;20230;-62
2022/04/11 05:47:36;;;;;;;6.53;3.60;;;8.00;99.90;;;;;;4973290;28;20178;-62
2022/04/11 05:50:01;;;;;;;10.43;4.10;;;8.00;99.90;;;;;;4973178;28;20179;-62
2022/04/11 05:52:27;;;;;;;11.43;3.87;;;8.00;99.90;;;;;;4973085;28;20186;-62
2022/04/11 05:54:53;;;;;;;9.80;3.97;;;8.10;99.90;;;;;;4973282;28;20647;-61
2022/04/11 05:57:19;;;;;;;6.60;3.53;;;8.10;99.90;;;;;;4973204;28;20536;-62
2022/04/11 05:59:44;;;;;;;11.47;4.30;;;8.20;99.90;;;;;;4973144;28;20183;-62
2022/04/11 06:02:10;;;;;;;15.30;4.17;;;8.20;99.90;;;;;;4972980;28;20176;-62
2022/04/11 06:04:37;;;;;;;9.63;3.63;;;8.20;99.90;;;;;;4972956;28;20382;-63
2022/04/11 06:07:04;;;;;;;8.03;3.60;;;8.30;99.90;;;;;;4972813;28;20180;-63
2022/04/11 06:09:30;;;;;;;14.13;4.07;;;8.30;99.90;;;;;;4989971;28;20650;-63
2022/04/11 06:11:57;;;;;;;10.97;4.00;;;8.40;99.90;;;;;;4992243;28;20249;-63
2022/04/11 06:14:22;;;;;;;12.30;3.63;;;8.40;99.90;;;;;;4991723;28;20210;-62
2022/04/11 06:16:48;;;;;;;9.50;4.43;;;8.50;99.90;;;;;;4992038;28;20639;-62
2022/04/11 06:19:15;;;;;;;9.27;3.50;;;8.50;99.90;;;;;;4992137;28;20309;-62
2022/04/11 06:21:40;;;;;;;9.10;3.80;;;8.50;99.90;;;;;;4984675;28;20168;-63
2022/04/11 06:24:07;;;;;;;9.37;4.00;;;8.60;99.90;;;;;;4972683;28;20199;-62
2022/04/11 06:26:33;;;;;;;15.77;4.23;;;8.60;99.90;;;;;;4972416;28;20219;-62
2022/04/11 06:28:58;;;;;;;10.23;3.83;;;8.70;99.90;;;;;;4972451;28;20172;-62
2022/04/11 06:31:24;;;;;;;8.57;3.73;;;8.70;99.90;;;;;;4972612;28;20171;-62
2022/04/11 06:33:50;;;;;;;10.33;3.90;;;8.80;99.90;;;;;;4972429;28;20171;-63
2022/04/11 06:36:16;;;;;;;12.47;3.13;;;8.90;99.90;;;;;;4972311;28;20255;-62
2022/04/11 06:38:41;;;;;;;10.87;3.57;;;8.90;99.90;;;;;;4972284;28;20662;-62
2022/04/11 06:41:07;;;;;;;12.07;3.70;;;8.90;99.90;;;;;;4972220;28;20539;-62
2022/04/11 06:43:33;;;;;;;7.20;3.70;;;9.00;99.90;;;;;;4972164;28;20184;-62
2022/04/11 06:45:59;;;;;;;9.90;4.57;;;9.00;99.90;;;;;;4970780;28;20588;-62
2022/04/11 06:48:25;;;;;;;9.87;3.77;;;9.10;99.90;;;;;;4972041;28;20639;-62
2022/04/11 06:50:52;;;;;;;9.87;3.70;;;9.10;99.90;;;;;;4972296;28;20215;-62
2022/04/11 06:53:19;;;;;;;6.37;3.50;;;9.10;99.90;;;;;;4970973;28;20548;-63
2022/04/11 06:55:48;;;;;;;15.37;4.03;;;9.20;99.90;;;;;;4972356;28;20187;-63
2022/04/11 06:58:16;;;;;;;9.67;3.27;;;9.30;99.90;;;;;;4974730;28;20203;-63
2022/04/11 07:00:42;;;;;;;7.47;3.50;;;9.30;99.90;;;;;;4991584;28;20317;-63
2022/04/11 07:03:08;;;;;;;10.87;3.60;;;9.30;99.90;;;;;;4991475;28;20834;-63
2022/04/11 07:05:34;;;;;;;7.07;3.47;;;9.40;99.90;;;;;;4991641;28;20257;-63
2022/04/11 07:08:00;;;;;;;12.10;4.07;;;9.50;99.90;;;;;;5015814;28;20557;-63
2022/04/11 07:10:26;;;;;;;5.67;3.50;;;9.60;99.90;;;;;;4972033;28;20239;-63
2022/04/11 07:12:52;;;;;;;10.73;4.00;;;9.70;99.90;;;;;;4972196;28;20231;-65
2022/04/11 07:15:17;;;;;;;8.77;3.60;;;9.70;99.90;;;;;;4970863;28;20682;-64
2022/04/11 07:17:44;;;;;;;5.90;3.50;;;9.70;99.90;;;;;;4972150;28;20639;-60
2022/04/11 07:20:10;;;;;;;7.67;3.33;;;9.80;99.90;;;;;;4979287;28;20175;-60
2022/04/11 07:22:36;;;;;;;9.13;3.37;;;9.90;99.90;;;;;;4990521;28;20258;-60
2022/04/11 07:25:03;;;;;;;8.13;3.50;;;10.00;99.90;;;;;;4983434;28;20717;-58
2022/04/11 07:27:29;;;;;;;5.87;3.17;;;10.10;99.90;;;;;;4994118;28;20218;-59
2022/04/11 07:29:54;;;;;;;6.83;3.20;;;10.00;99.90;;;;;;4995222;28;20571;-59
2022/04/11 07:32:20;;;;;;;9.90;3.87;;;10.10;99.90;;;;;;4994943;28;20171;-59
2022/04/11 07:34:47;;;;;;;11.60;3.50;;;10.10;99.90;;;;;;4994970;28;20171;-60
2022/04/11 07:37:13;;;;;;;14.30;3.83;;;10.10;99.90;;;;;;4994781;28;20227;-60
2022/04/11 07:39:39;;;;;;;10.40;3.27;;;10.10;99.90;;;;;;4994970;28;20222;-60
2022/04/11 07:42:05;;;;;;;11.93;3.00;;;10.20;99.90;;;;;;4992402;28;20230;-60
2022/04/11 07:44:31;;;;;;;9.03;3.10;;;10.20;99.90;;;;;;4982212;28;20175;-61
2022/04/11 07:46:56;;;;;;;11.97;3.53;;;10.20;99.90;;;;;;4975144;28;20607;-60
2022/04/11 07:49:22;;;;;;;9.50;3.00;;;10.20;99.90;;;;;;4975096;28;20180;-61
2022/04/11 07:51:48;;;;;;;7.07;2.90;;;10.30;99.90;;;;;;4975000;28;20180;-62
2022/04/11 07:54:14;;;;;;;8.87;2.93;;;10.30;99.90;;;;;;4975305;28;20519;-61
2022/04/11 07:56:40;;;;;;;7.40;2.80;;;10.30;99.90;;;;;;4975109;28;20180;-61
2022/04/11 07:59:06;;;;;;;10.43;2.97;;;10.40;99.90;;;;;;4988949;28;20180;-61
2022/04/11 08:01:31;;;;;;;10.40;3.33;;;10.40;99.90;;;;;;4986273;28;20184;-61
2022/04/11 08:03:57;;;;;;;11.87;3.70;;;10.40;99.90;;;;;;4975011;28;20191;-61
2022/04/11 08:06:23;;;;;;;6.60;3.00;;;10.50;99.90;;;;;;4974795;28;20207;-61
2022/04/11 08:08:49;;;;;;;12.23;2.93;;;10.50;99.90;;;;;;4976626;28;20210;-61
2022/04/11 08:11:19;;;;;;;5.50;2.73;;;10.50;99.90;;;;;;4994214;28;20182;-62
2022/04/11 08:13:45;;;;;;;7.00;2.90;;;10.60;99.90;;;;;;4994165;28;20180;-62
2022/04/11 08:16:12;;;;;;;7.77;2.60;;;10.60;99.90;;;;;;4986764;28;20179;-63
2022/04/11 08:18:38;;;;;;;10.23;3.13;;;10.70;99.90;;;;;;4987629;28;20265;-65
2022/04/11 08:21:04;;;;;;;7.33;2.97;;;10.80;99.90;;;;;;4993654;28;20183;-56
2022/04/11 08:23:30;;;;;;;9.87;3.10;;;10.80;99.90;;;;;;4993488;28;20653;-62
2022/04/11 08:25:56;;;;;;;8.07;3.13;;;10.80;99.90;;;;;;4993745;28;20215;-62
2022/04/11 08:28:23;;;;;;;14.30;3.17;;;10.90;99.90;;;;;;4981505;28;20259;-63
2022/04/11 08:30:50;;;;;;;8.10;2.53;;;10.90;99.90;;;;;;4985410;28;20262;-63
2022/04/11 08:33:16;;;;;;;10.37;3.37;;;11.00;99.90;;;;;;4993910;28;20171;-62
2022/04/11 08:35:42;;;;;;;9.30;3.07;;;11.10;99.90;;;;;;4989276;28;20219;-62
2022/04/11 08:38:08;;;;;;;7.67;3.03;;;11.40;99.90;;;;;;4982386;28;20186;-64
2022/04/11 08:40:35;;;;;;;12.77;2.90;;;11.50;99.90;;;;;;4982118;28;20198;-60
2022/04/11 08:43:02;;;;;;;6.37;2.80;;;11.60;99.90;;;;;;4974141;28;20247;-59
2022/04/11 08:45:29;;;;;;;16.87;3.10;;;11.60;99.90;;;;;;4985372;28;20217;-59
2022/04/11 08:47:56;;;;;;;11.80;2.70;;;11.80;99.90;;;;;;4993567;28;20170;-59
2022/04/11 08:50:24;;;;;;;14.80;3.73;;;11.70;99.90;;;;;;4992915;28;20635;-59
2022/04/11 08:52:51;;;;;;;9.73;2.70;;;11.70;99.90;;;;;;4993086;28;20250;-60
2022/04/11 08:55:17;;;;;;;13.27;3.43;;;11.20;99.90;;;;;;4989601;28;20282;-60
2022/04/11 08:57:43;;;;;;;9.70;2.40;;;11.80;99.90;;;;;;4990195;28;20210;-59
2022/04/11 09:00:15;;;;;;;9.70;2.30;;;11.90;99.90;;;;;;4993290;28;20164;-60
2022/04/11 09:02:42;;;;;;;6.70;2.60;;;11.80;99.90;;;;;;4993271;28;20176;-62
2022/04/11 09:05:08;;;;;;;5.33;2.00;;;11.70;99.90;;;;;;4992971;28;20700;-64
2022/04/11 09:07:57;;;;;;;5.10;2.47;;;11.80;99.90;;;;;;4993372;28;20190;-57
2022/04/11 09:10:36;;;;;;;8.43;2.27;;;12.10;99.90;;;;;;4983345;28;20179;-60
2022/04/11 09:13:09;;;;;;;5.63;2.77;;;12.00;99.90;;;;;;4993360;28;20245;-61
2022/04/11 09:15:48;;;;;;;11.20;2.77;;;12.20;99.90;;;;;;4993282;28;20168;-60
2022/04/11 09:18:13;;;;;;;10.00;2.40;;;12.60;99.90;;;;;;4992677;28;20171;-60
2022/04/11 09:20:43;;;;;;;9.83;2.90;;;12.70;99.90;;;;;;4992865;28;20183;-62
2022/04/11 09:23:21;;;;;;;5.00;2.50;;;12.80;99.90;;;;;;4992691;28;20266;-60
2022/04/11 09:25:48;;;;;;;9.17;2.40;;;12.60;99.90;;;;;;4989938;28;20214;-60
2022/04/11 09:28:13;;;;;;;5.47;2.17;;;12.80;99.90;;;;;;4987229;28;20179;-61
2022/04/11 09:30:43;;;;;;;8.37;2.90;;;12.90;99.90;;;;;;4992723;28;20218;-60
2022/04/11 09:33:10;;;;;;;6.68;2.55;;;13.00;99.90;;;;;;4992647;28;20183;-61
2022/04/11 09:35:40;;;;;;;6.63;2.30;;;13.20;99.90;;;;;;4992574;28;20292;-60
2022/04/11 09:38:07;;;;;;;7.78;2.40;;;13.40;99.90;;;;;;4992907;28;20254;-60
2022/04/11 09:40:48;;;;;;;6.90;2.50;;;13.50;99.90;;;;;;4992713;28;20214;-61
2022/04/11 09:43:15;;;;;;;10.52;2.35;;;14.20;99.90;;;;;;4991385;28;20178;-61
2022/04/11 09:45:48;;;;;;;14.75;2.80;;;15.40;99.90;;;;;;4985800;28;20285;-59
2022/04/11 09:48:21;;;;;;;6.22;2.42;;;15.90;99.90;;;;;;4986727;28;20266;-59
2022/04/11 09:50:49;;;;;;;11.13;2.67;;;15.90;99.90;;;;;;4991776;28;20651;-59
2022/04/11 09:53:17;;;;;;;8.00;2.65;;;15.30;99.90;;;;;;4992691;28;20206;-59
2022/04/11 09:55:46;;;;;;;6.15;2.47;;;15.70;99.90;;;;;;4992196;28;20206;-59
2022/04/11 09:58:13;;;;;;;6.20;2.25;;;16.20;99.90;;;;;;4992176;28;20167;-59
2022/04/11 10:00:40;;;;;;;7.07;2.30;;;15.90;99.90;;;;;;4991792;28;20201;-59
2022/04/11 10:03:06;;;;;;;8.68;2.60;;;15.90;99.90;;;;;;4991828;28;20187;-59
2022/04/11 10:05:36;;;;;;;11.48;3.10;;;15.10;99.90;;;;;;4992201;28;20301;-61
2022/04/11 10:08:08;;;;;;;8.80;2.50;;;15.30;99.90;;;;;;4992290;28;20163;-61
2022/04/11 10:10:38;;;;;;;12.63;2.67;;;14.90;99.90;;;;;;4991680;28;20190;-61
2022/04/11 10:13:07;;;;;;;9.15;2.80;;;14.80;99.90;;;;;;4991993;28;20179;-61
2022/04/11 10:15:33;;;;;;;6.20;2.40;;;15.10;99.90;;;;;;4992209;28;20175;-61
2022/04/11 10:17:59;;;;;;;6.93;2.40;;;15.00;99.90;;;;;;4991962;28;20175;-61
2022/04/11 10:20:39;;;;;;;10.88;2.30;;;15.10;99.90;;;;;;4991993;28;20179;-61
2022/04/11 10:23:22;;;;;;;8.75;1.92;;;14.90;99.90;;;;;;4991628;28;20179;-61
2022/04/11 10:25:51;;;;;;;10.30;2.67;;;14.10;99.90;;;;;;4986937;28;20208;-60
2022/04/11 10:28:22;;;;;;;15.35;2.58;;;14.60;99.90;;;;;;4982504;28;20175;-61
2022/04/11 10:31:09;;;;;;;7.95;2.78;;;14.50;99.90;;;;;;4991448;28;20631;-61
2022/04/11 10:33:47;;;;;;;8.77;2.00;;;14.80;99.90;;;;;;4972675;28;20226;-58
2022/04/11 10:36:39;;;;;;;6.07;2.20;;;14.90;99.90;;;;;;4971234;28;20387;-59
2022/04/11 10:39:16;;;;;;;7.28;2.25;;;15.10;99.90;;;;;;4971922;28;20218;-59
2022/04/11 10:41:57;;;;;;;5.40;2.20;;;15.00;99.90;;;;;;4971671;28;20231;-60
2022/04/11 10:44:54;;;;;;;10.70;2.28;;;15.50;99.90;;;;;;4979568;28;20262;-59
2022/04/11 10:47:29;;;;;;;6.72;2.80;;;16.40;99.90;;;;;;4991440;28;20193;-60
2022/04/11 10:49:55;;;;;;;9.95;2.75;;;17.50;99.90;;;;;;4990728;28;20179;-60
2022/04/11 10:52:31;;;;;;;4.20;2.17;;;17.10;99.90;;;;;;4991011;28;20177;-60
2022/04/11 10:55:11;;;;;;;8.73;2.25;;;18.70;99.90;;;;;;4991610;28;20175;-61
2022/04/11 10:57:42;;;;;;;4.28;2.10;;;19.60;99.90;;;;;;4991292;28;20167;-60
2022/04/11 11:00:17;;;;;;;9.02;2.55;;;19.20;99.90;;;;;;4995792;28;20171;-61
2022/04/11 11:05:30;;;;;;;9.93;3.05;;;19.20;99.90;;;;;;4997700;28;20230;-61
2022/04/11 11:08:14;;;;;;;9.15;2.28;;;19.60;99.90;;;;;;4980210;28;20220;-61
2022/04/11 11:10:55;;;;;;;3.80;1.80;;;19.60;99.90;;;;;;4997823;28;20186;-60
2022/04/11 11:13:41;;;;;;;9.57;2.28;;;19.10;99.90;;;;;;4997770;28;20178;-61
2022/04/11 11:16:07;;;;;;;9.88;2.63;;;20.40;99.90;;;;;;4998095;28;20175;-61
2022/04/11 11:21:19;;;;;;;9.40;2.30;;;19.30;99.90;;;;;;4997863;28;20176;-60
2022/04/11 11:24:03;;;;;;;5.63;2.10;;;18.80;99.90;;;;;;4997910;28;20194;-60
2022/04/11 11:26:52;;;;;;;6.20;1.98;;;18.00;99.90;;;;;;4997703;28;20206;-60
2022/04/11 11:29:33;;;;;;;5.68;2.03;;;18.30;99.90;;;;;;4997684;28;20179;-60
2022/04/11 11:32:04;;;;;;;7.93;1.92;;;17.80;99.90;;;;;;4997409;28;20179;-58
2022/04/11 11:34:32;;;;;;;5.47;2.25;;;17.20;99.90;;;;;;4997595;28;20701;-59
2022/04/11 11:37:00;;;;;;;8.55;2.25;;;18.60;99.90;;;;;;4997473;28;20234;-59
2022/04/11 11:39:27;;;;;;;6.40;2.40;;;19.20;99.90;;;;;;4996278;28;20527;-59
2022/04/11 11:42:00;;;;;;;5.18;2.00;;;18.30;99.90;;;;;;4993563;28;20177;-59
2022/04/11 11:44:27;;;;;;;9.13;2.13;;;17.00;99.90;;;;;;4997155;28;20179;-59
2022/04/11 11:46:56;;;;;;;7.20;2.05;;;16.50;99.90;;;;;;4997513;28;20237;-60
2022/04/11 11:49:24;;;;;;;7.30;1.90;;;17.00;99.90;;;;;;4994328;28;20237;-60
2022/04/11 11:51:51;;;;;;;5.47;1.80;;;17.10;99.90;;;;;;4994965;28;20266;-61
2022/04/11 11:54:37;;;;;;;7.47;1.80;;;16.70;99.90;;;;;;4981433;28;20230;-60
2022/04/11 11:57:32;;;;;;;5.60;1.80;;;16.70;99.90;;;;;;4977946;28;20203;-59
2022/04/11 12:00:06;;;;;;;5.78;1.45;;;16.40;99.90;;;;;;4977724;28;20187;-59
2022/04/11 12:05:24;;;;;;;10.52;1.92;;;16.30;99.90;;;;;;4978057;28;20710;-59
2022/04/11 12:08:13;;;;;;;5.50;1.60;;;16.30;99.90;;;;;;4997458;28;20234;-59
2022/04/11 12:10:48;;;;;;;9.45;1.48;;;16.20;99.90;;;;;;4994655;28;20664;-59
2022/04/11 12:13:25;;;;;;;6.03;1.40;;;16.50;99.90;;;;;;4994110;28;20175;-59
2022/04/11 12:15:51;;;;;;;5.60;1.63;;;16.40;99.90;;;;;;4994071;28;20183;-59
2022/04/11 12:18:17;;;;;;;5.90;1.52;;;16.20;99.90;;;;;;4992722;28;20175;-59
2022/04/11 12:20:43;;;;;;;3.88;1.17;;;16.20;99.90;;;;;;4993008;28;20222;-59
2022/04/11 12:23:13;;;;;;;6.72;2.00;;;16.20;99.90;;;;;;4993746;28;20206;-59
2022/04/11 12:25:48;;;;;;;7.18;1.77;;;16.70;99.90;;;;;;4993764;28;20210;-59
2022/04/11 12:28:24;;;;;;;7.78;1.33;;;17.00;99.90;;;;;;4993631;28;20194;-59
2022/04/11 12:31:02;;;;;;;4.28;1.42;;;17.00;99.90;;;;;;4993855;28;20170;-59
2022/04/11 12:33:34;;;;;;;5.90;1.63;;;16.70;99.90;;;;;;4994091;28;20183;-59
2022/04/11 12:36:09;;;;;;;6.72;2.00;;;16.80;99.90;;;;;;4993208;28;20293;-60
2022/04/11 12:38:47;;;;;;;10.23;1.90;;;17.30;99.90;;;;;;4993522;28;20199;-59
2022/04/11 12:41:32;;;;;;;5.35;1.80;;;17.50;99.90;;;;;;4993909;28;20189;-59
2022/04/11 12:44:07;;;;;;;7.38;1.60;;;17.50;99.90;;;;;;4993636;28;20186;-59
2022/04/11 12:46:34;;;;;;;11.32;1.73;;;17.30;99.90;;;;;;4989982;28;20218;-60
2022/04/11 12:49:01;;;;;;;8.25;1.27;;;17.40;99.90;;;;;;4974464;28;20176;-59
2022/04/11 12:51:28;;;;;;;46.10;6.20;;;17.50;99.90;;;;;;4973333;28;20172;-60
2022/04/11 12:54:20;;;;;;;5.95;1.50;;;17.30;99.90;;;;;;4974388;28;20547;-60
2022/04/11 12:56:49;;;;;;;14.93;2.40;;;16.70;99.90;;;;;;4970629;28;20671;-60
2022/04/11 12:59:31;;;;;;;22.60;3.35;;;16.80;99.90;;;;;;4974163;28;20183;-60
2022/04/11 13:02:05;;;;;;;9.10;2.03;;;16.80;99.90;;;;;;4975179;28;20643;-60